createdAt,value
2018-04-06T00:00:06.939Z,2.11
2018-04-06T00:01:06.999Z,2.04
2018-04-06T00:02:07.067Z,2.04
2018-04-06T00:03:07.119Z,2.04
2018-04-06T00:04:07.291Z,2.07
2018-04-06T00:05:07.239Z,1.99
2018-04-06T00:06:07.288Z,2.04
2018-04-06T00:07:07.375Z,2.08
2018-04-06T00:08:07.407Z,2.10
2018-04-06T00:09:07.475Z,2.06
2018-04-06T00:10:07.576Z,2.17
2018-04-06T00:11:07.583Z,2.25
2018-04-06T00:12:07.667Z,2.22
2018-04-06T00:13:07.700Z,2.35
2018-04-06T00:14:07.771Z,2.33
2018-04-06T00:15:07.856Z,2.32
2018-04-06T00:16:07.888Z,2.31
2018-04-06T00:17:07.964Z,2.39
2018-04-06T00:18:07.992Z,2.33
2018-04-06T00:19:08.084Z,2.29
2018-04-06T00:20:08.140Z,2.38
2018-04-06T00:21:08.200Z,2.36
2018-04-06T00:22:08.232Z,2.38
2018-04-06T00:23:08.296Z,2.26
2018-04-06T00:24:08.377Z,2.26
2018-04-06T00:25:08.460Z,2.36
2018-04-06T00:26:08.496Z,2.31
2018-04-06T00:27:08.524Z,2.32
2018-04-06T00:28:08.652Z,2.29
2018-04-06T00:29:08.653Z,2.20
2018-04-06T00:30:08.712Z,2.15
2018-04-06T00:31:08.764Z,2.18
2018-04-06T00:32:08.820Z,2.22
2018-04-06T00:33:08.880Z,2.13
2018-04-06T00:34:08.973Z,2.13
2018-04-06T00:35:09.008Z,2.17
2018-04-06T00:36:09.056Z,2.15
2018-04-06T00:37:09.120Z,2.08
2018-04-06T00:38:09.181Z,2.22
2018-04-06T00:39:09.233Z,2.24
2018-04-06T00:40:09.413Z,2.22
2018-04-06T00:41:09.365Z,2.24
2018-04-06T00:42:09.413Z,2.06
2018-04-06T00:43:09.469Z,2.04
2018-04-06T00:44:09.533Z,2.13
2018-04-06T00:45:09.597Z,2.10
2018-04-06T00:46:09.661Z,2.20
2018-04-06T00:47:09.705Z,2.20
2018-04-06T00:48:09.767Z,2.14
2018-04-06T00:49:09.825Z,2.10
2018-04-06T00:50:09.891Z,2.00
2018-04-06T00:51:09.949Z,2.20
2018-04-06T00:52:10.001Z,2.14
2018-04-06T00:53:10.065Z,2.13
2018-04-06T00:54:10.117Z,2.07
2018-04-06T00:55:10.184Z,2.04
2018-04-06T00:56:10.269Z,2.02
2018-04-06T00:57:10.298Z,2.18
2018-04-06T00:58:10.357Z,2.13
2018-04-06T00:59:10.414Z,2.08
2018-04-06T01:00:10.477Z,2.11
2018-04-06T01:01:10.538Z,2.15
2018-04-06T01:02:10.601Z,2.08
2018-04-06T01:03:10.657Z,1.94
2018-04-06T01:04:10.715Z,2.06
2018-04-06T01:05:10.770Z,1.94
2018-04-06T01:06:10.834Z,2.11
2018-04-06T01:07:10.891Z,2.00
2018-04-06T01:08:10.944Z,2.02
2018-04-06T01:09:11.002Z,2.18
2018-04-06T01:10:11.062Z,2.04
2018-04-06T01:11:11.154Z,2.02
2018-04-06T01:12:11.178Z,2.06
2018-04-06T01:13:11.242Z,1.97
2018-04-06T01:14:11.302Z,2.11
2018-04-06T01:15:11.354Z,2.04
2018-04-06T01:16:11.422Z,1.95
2018-04-06T01:17:11.478Z,2.07
2018-04-06T01:18:11.538Z,1.97
2018-04-06T01:19:11.599Z,2.06
2018-04-06T01:20:11.650Z,2.04
2018-04-06T01:21:11.714Z,2.04
2018-04-06T01:22:11.774Z,2.07
2018-04-06T01:23:11.839Z,2.04
2018-04-06T01:24:11.887Z,2.13
2018-04-06T01:25:11.943Z,2.04
2018-04-06T01:26:12.019Z,2.17
2018-04-06T01:27:12.074Z,2.08
2018-04-06T01:28:12.141Z,2.11
2018-04-06T01:29:12.182Z,1.95
2018-04-06T01:30:12.239Z,1.99
2018-04-06T01:31:12.458Z,1.99
2018-04-06T01:32:12.359Z,2.06
2018-04-06T01:33:12.423Z,2.06
2018-04-06T01:34:12.484Z,2.02
2018-04-06T01:35:12.535Z,1.97
2018-04-06T01:36:12.607Z,2.07
2018-04-06T01:37:12.659Z,2.06
2018-04-06T01:38:12.711Z,2.10
2018-04-06T01:39:12.771Z,2.04
2018-04-06T01:40:12.827Z,1.99
2018-04-06T01:41:12.891Z,1.99
2018-04-06T01:42:12.951Z,1.95
2018-04-06T01:43:13.003Z,2.00
2018-04-06T01:44:13.067Z,2.02
2018-04-06T01:45:13.124Z,2.00
2018-04-06T01:46:13.427Z,1.97
2018-04-06T01:47:13.239Z,1.85
2018-04-06T01:48:13.299Z,1.88
2018-04-06T01:49:13.359Z,1.91
2018-04-06T01:50:13.416Z,1.87
2018-04-06T01:51:13.484Z,1.80
2018-04-06T01:52:13.539Z,1.76
2018-04-06T01:53:13.592Z,1.74
2018-04-06T01:54:13.652Z,1.74
2018-04-06T01:55:13.708Z,1.76
2018-04-06T01:56:13.778Z,1.68
2018-04-06T01:57:13.836Z,1.70
2018-04-06T01:58:13.888Z,1.67
2018-04-06T01:59:13.944Z,1.71
2018-04-06T02:00:14.008Z,1.74
2018-04-06T02:01:14.067Z,1.71
2018-04-06T02:02:14.131Z,1.73
2018-04-06T02:03:14.184Z,1.66
2018-04-06T02:04:14.258Z,1.62
2018-04-06T02:05:14.306Z,1.59
2018-04-06T02:06:14.368Z,1.63
2018-04-06T02:07:14.424Z,1.59
2018-04-06T02:08:14.472Z,1.55
2018-04-06T02:09:14.536Z,1.56
2018-04-06T02:10:14.593Z,1.66
2018-04-06T02:11:14.660Z,1.73
2018-04-06T02:12:14.717Z,1.60
2018-04-06T02:13:14.773Z,1.70
2018-04-06T02:14:14.828Z,1.58
2018-04-06T02:15:14.885Z,1.68
2018-04-06T02:16:14.949Z,1.63
2018-04-06T02:17:15.009Z,1.50
2018-04-06T02:18:15.060Z,1.56
2018-04-06T02:19:15.121Z,1.63
2018-04-06T02:20:15.177Z,1.66
2018-04-06T02:21:15.365Z,1.60
2018-04-06T02:22:15.297Z,1.52
2018-04-06T02:23:15.353Z,1.59
2018-04-06T02:24:15.413Z,1.60
2018-04-06T02:25:15.473Z,1.60
2018-04-06T02:26:15.551Z,1.56
2018-04-06T02:27:15.597Z,1.68
2018-04-06T02:28:15.655Z,1.63
2018-04-06T02:29:15.706Z,1.59
2018-04-06T02:30:15.765Z,1.63
2018-04-06T02:31:15.829Z,1.62
2018-04-06T02:32:15.890Z,1.60
2018-04-06T02:33:15.942Z,1.50
2018-04-06T02:34:16.002Z,1.52
2018-04-06T02:35:16.063Z,1.53
2018-04-06T02:36:16.177Z,1.55
2018-04-06T02:37:16.177Z,1.55
2018-04-06T02:38:16.234Z,1.52
2018-04-06T02:39:16.294Z,1.52
2018-04-06T02:40:16.360Z,1.41
2018-04-06T02:41:16.422Z,1.48
2018-04-06T02:42:16.482Z,1.50
2018-04-06T02:43:16.530Z,1.45
2018-04-06T02:44:16.590Z,1.49
2018-04-06T02:45:16.647Z,1.44
2018-04-06T02:46:16.711Z,1.52
2018-04-06T02:47:16.772Z,1.45
2018-04-06T02:48:16.826Z,1.50
2018-04-06T02:49:16.879Z,1.49
2018-04-06T02:50:16.939Z,1.44
2018-04-06T02:51:17.003Z,1.44
2018-04-06T02:52:17.062Z,1.35
2018-04-06T02:53:17.115Z,1.40
2018-04-06T02:54:17.175Z,1.38
2018-04-06T02:55:17.235Z,1.32
2018-04-06T02:56:17.308Z,1.38
2018-04-06T02:57:17.351Z,1.53
2018-04-06T02:58:17.422Z,1.49
2018-04-06T02:59:17.471Z,1.52
2018-04-06T03:00:17.523Z,1.50
2018-04-06T03:01:17.591Z,1.50
2018-04-06T03:02:17.650Z,1.70
2018-04-06T03:03:17.699Z,1.53
2018-04-06T03:04:17.759Z,1.70
2018-04-06T03:05:17.815Z,1.70
2018-04-06T03:06:17.882Z,1.62
2018-04-06T03:07:17.939Z,1.59
2018-04-06T03:08:17.991Z,1.63
2018-04-06T03:09:18.097Z,1.59
2018-04-06T03:10:18.119Z,1.62
2018-04-06T03:11:18.339Z,1.71
2018-04-06T03:12:18.229Z,1.71
2018-04-06T03:13:18.287Z,1.71
2018-04-06T03:14:18.342Z,1.71
2018-04-06T03:15:18.403Z,1.76
2018-04-06T03:16:18.471Z,1.68
2018-04-06T03:17:18.527Z,1.71
2018-04-06T03:18:18.579Z,1.58
2018-04-06T03:19:18.636Z,1.59
2018-04-06T03:20:18.696Z,1.70
2018-04-06T03:21:18.769Z,1.53
2018-04-06T03:22:18.819Z,1.67
2018-04-06T03:23:18.868Z,1.56
2018-04-06T03:24:18.948Z,1.48
2018-04-06T03:25:18.988Z,1.58
2018-04-06T03:26:19.052Z,1.48
2018-04-06T03:27:19.116Z,1.53
2018-04-06T03:28:19.167Z,1.50
2018-04-06T03:29:19.222Z,1.49
2018-04-06T03:30:19.282Z,1.53
2018-04-06T03:31:19.353Z,1.45
2018-04-06T03:32:19.411Z,1.35
2018-04-06T03:33:19.456Z,1.38
2018-04-06T03:34:19.516Z,1.32
2018-04-06T03:35:19.576Z,1.30
2018-04-06T03:36:19.641Z,1.31
2018-04-06T03:37:19.732Z,1.23
2018-04-06T03:38:19.768Z,1.32
2018-04-06T03:39:19.800Z,1.40
2018-04-06T03:40:19.873Z,1.37
2018-04-06T03:41:19.964Z,1.30
2018-04-06T03:42:20.001Z,1.28
2018-04-06T03:43:20.073Z,1.32
2018-04-06T03:44:20.105Z,1.28
2018-04-06T03:45:20.166Z,1.34
2018-04-06T03:46:20.641Z,1.32
2018-04-06T03:47:20.289Z,1.28
2018-04-06T03:48:20.349Z,1.31
2018-04-06T03:49:20.388Z,1.31
2018-04-06T03:50:20.449Z,1.24
2018-04-06T03:51:20.513Z,1.37
2018-04-06T03:52:20.600Z,1.32
2018-04-06T03:53:20.624Z,1.24
2018-04-06T03:54:20.705Z,1.30
2018-04-06T03:55:20.789Z,1.20
2018-04-06T03:56:20.813Z,1.23
2018-04-06T03:57:20.861Z,1.16
2018-04-06T03:58:20.941Z,1.24
2018-04-06T03:59:21.685Z,1.20
2018-04-06T04:00:21.046Z,1.22
2018-04-06T04:01:21.085Z,1.16
2018-04-06T04:02:21.155Z,1.23
2018-04-06T04:03:21.333Z,1.20
2018-04-06T04:04:21.269Z,1.22
2018-04-06T04:05:21.329Z,1.20
2018-04-06T04:06:21.401Z,1.26
2018-04-06T04:07:21.454Z,1.13
2018-04-06T04:08:21.506Z,1.20
2018-04-06T04:09:21.577Z,1.24
2018-04-06T04:10:21.614Z,1.22
2018-04-06T04:11:21.677Z,1.13
2018-04-06T04:12:21.754Z,1.17
2018-04-06T04:13:21.891Z,1.10
2018-04-06T04:14:21.878Z,1.13
2018-04-06T04:15:21.946Z,1.02
2018-04-06T04:16:22.017Z,1.02
2018-04-06T04:17:22.038Z,1.01
2018-04-06T04:18:22.149Z,1.05
2018-04-06T04:19:22.174Z,1.06
2018-04-06T04:20:22.200Z,1.14
2018-04-06T04:21:22.301Z,1.23
2018-04-06T04:22:22.318Z,1.31
2018-04-06T04:23:22.406Z,1.26
2018-04-06T04:24:22.482Z,1.41
2018-04-06T04:25:22.502Z,1.44
2018-04-06T04:26:22.562Z,1.32
2018-04-06T04:27:22.642Z,1.45
2018-04-06T04:28:22.662Z,1.44
2018-04-06T04:29:22.735Z,1.45
2018-04-06T04:30:22.793Z,1.48
2018-04-06T04:31:22.839Z,1.59
2018-04-06T04:32:22.898Z,1.59
2018-04-06T04:33:22.963Z,1.67
2018-04-06T04:34:23.076Z,1.70
2018-04-06T04:35:23.154Z,1.74
2018-04-06T04:36:23.135Z,1.73
2018-04-06T04:37:23.190Z,1.74
2018-04-06T04:38:23.255Z,1.74
2018-04-06T04:39:23.311Z,1.74
2018-04-06T04:40:23.374Z,1.73
2018-04-06T04:41:23.435Z,1.71
2018-04-06T04:42:24.065Z,1.74
2018-04-06T04:43:23.542Z,1.76
2018-04-06T04:44:23.610Z,1.71
2018-04-06T04:45:23.663Z,1.68
2018-04-06T04:46:23.715Z,1.74
2018-04-06T04:47:23.779Z,1.68
2018-04-06T04:48:23.839Z,1.77
2018-04-06T04:49:23.899Z,1.68
2018-04-06T04:50:23.973Z,1.70
2018-04-06T04:51:24.003Z,1.62
2018-04-06T04:52:24.063Z,1.67
2018-04-06T04:53:24.124Z,1.66
2018-04-06T04:54:24.179Z,1.60
2018-04-06T04:55:24.279Z,1.60
2018-04-06T04:56:24.299Z,1.60
2018-04-06T04:57:24.364Z,1.59
2018-04-06T04:58:24.420Z,1.58
2018-04-06T04:59:24.483Z,1.55
2018-04-06T05:00:24.611Z,1.55
2018-04-06T05:01:24.676Z,1.55
2018-04-06T05:02:24.660Z,1.50
2018-04-06T05:03:24.704Z,1.50
2018-04-06T05:04:24.760Z,1.49
2018-04-06T05:05:24.872Z,1.41
2018-04-06T05:06:24.899Z,1.50
2018-04-06T05:07:25.008Z,1.41
2018-04-06T05:08:24.991Z,1.41
2018-04-06T05:09:25.052Z,1.38
2018-04-06T05:10:25.718Z,1.42
2018-04-06T05:11:26.200Z,1.41
2018-04-06T05:12:27.408Z,1.41
2018-04-06T05:13:25.331Z,1.41
2018-04-06T05:14:25.721Z,1.45
2018-04-06T05:15:25.704Z,1.41
2018-04-06T05:16:25.583Z,1.48
2018-04-06T05:17:25.545Z,1.49
2018-04-06T05:18:25.724Z,1.48
2018-04-06T05:19:25.703Z,1.56
2018-04-06T05:20:25.845Z,1.52
2018-04-06T05:21:25.861Z,1.50
2018-04-06T05:22:25.836Z,1.50
2018-04-06T05:23:25.880Z,1.53
2018-04-06T05:24:26.074Z,1.52
2018-04-06T05:25:26.164Z,1.66
2018-04-06T05:26:26.193Z,1.63
2018-04-06T05:27:26.184Z,1.63
2018-04-06T05:28:26.191Z,1.67
2018-04-06T05:29:26.223Z,1.58
2018-04-06T05:30:26.425Z,1.73
2018-04-06T05:31:26.361Z,1.73
2018-04-06T05:32:26.496Z,1.78
2018-04-06T05:33:26.482Z,1.78
2018-04-06T05:34:26.556Z,1.80
2018-04-06T05:35:26.754Z,1.78
2018-04-06T05:36:26.854Z,1.73
2018-04-06T05:37:26.975Z,1.84
2018-04-06T05:38:26.957Z,1.87
2018-04-06T05:39:26.817Z,1.89
2018-04-06T05:40:26.937Z,1.97
2018-04-06T05:41:27.073Z,1.97
2018-04-06T05:42:27.045Z,2.04
2018-04-06T05:43:27.427Z,2.11
2018-04-06T05:44:28.061Z,2.17
2018-04-06T05:45:27.209Z,2.20
2018-04-06T05:46:27.302Z,2.26
2018-04-06T05:47:27.509Z,2.31
2018-04-06T05:48:27.422Z,2.35
2018-04-06T05:49:27.418Z,2.36
2018-04-06T05:50:27.462Z,2.42
2018-04-06T05:51:27.538Z,2.43
2018-04-06T05:52:27.809Z,2.51
2018-04-06T05:53:27.638Z,2.50
2018-04-06T05:54:27.738Z,2.60
2018-04-06T05:55:27.818Z,2.61
2018-04-06T05:56:27.850Z,2.69
2018-04-06T05:57:27.910Z,2.69
2018-04-06T05:58:28.026Z,2.72
2018-04-06T05:59:27.978Z,2.79
2018-04-06T06:00:28.066Z,2.83
2018-04-06T06:01:28.097Z,2.80
2018-04-06T06:02:28.258Z,2.93
2018-04-06T06:03:28.194Z,2.95
2018-04-06T06:04:28.438Z,3.01
2018-04-06T06:05:28.322Z,3.03
2018-04-06T06:06:28.418Z,3.11
2018-04-06T06:07:28.462Z,3.13
2018-04-06T06:08:28.555Z,3.22
2018-04-06T06:09:28.601Z,3.26
2018-04-06T06:10:28.607Z,3.28
2018-04-06T06:11:28.752Z,3.36
2018-04-06T06:12:28.779Z,3.42
2018-04-06T06:13:28.862Z,3.40
2018-04-06T06:14:28.858Z,3.40
2018-04-06T06:15:28.939Z,3.50
2018-04-06T06:16:29.111Z,3.50
2018-04-06T06:17:29.122Z,3.55
2018-04-06T06:18:29.167Z,3.65
2018-04-06T06:19:29.319Z,3.66
2018-04-06T06:20:29.243Z,3.76
2018-04-06T06:21:29.343Z,3.78
2018-04-06T06:22:29.343Z,3.77
2018-04-06T06:23:29.398Z,3.84
2018-04-06T06:24:29.430Z,3.87
2018-04-06T06:25:29.510Z,3.94
2018-04-06T06:26:29.566Z,3.98
2018-04-06T06:27:29.675Z,4.05
2018-04-06T06:28:29.695Z,4.08
2018-04-06T06:29:29.739Z,4.19
2018-04-06T06:30:29.875Z,4.12
2018-04-06T06:31:29.847Z,4.16
2018-04-06T06:32:29.911Z,4.20
2018-04-06T06:33:29.965Z,4.28
2018-04-06T06:34:30.127Z,4.35
2018-04-06T06:35:30.087Z,4.41
2018-04-06T06:36:30.151Z,4.41
2018-04-06T06:37:30.819Z,4.42
2018-04-06T06:38:30.273Z,4.52
2018-04-06T06:39:30.308Z,4.55
2018-04-06T06:40:30.367Z,4.55
2018-04-06T06:41:30.491Z,4.59
2018-04-06T06:42:30.485Z,4.63
2018-04-06T06:43:30.724Z,4.67
2018-04-06T06:44:30.892Z,4.78
2018-04-06T06:45:30.698Z,4.84
2018-04-06T06:46:30.750Z,4.84
2018-04-06T06:47:30.828Z,4.92
2018-04-06T06:48:30.852Z,4.86
2018-04-06T06:49:30.911Z,4.92
2018-04-06T06:50:30.992Z,4.90
2018-04-06T06:51:31.016Z,4.99
2018-04-06T06:52:31.104Z,4.99
2018-04-06T06:53:31.271Z,5.02
2018-04-06T06:54:31.208Z,5.11
2018-04-06T06:55:31.251Z,5.08
2018-04-06T06:56:31.328Z,5.17
2018-04-06T06:57:31.392Z,5.21
2018-04-06T06:58:31.448Z,5.32
2018-04-06T06:59:31.504Z,5.35
2018-04-06T07:00:31.564Z,5.35
2018-04-06T07:01:31.612Z,5.35
2018-04-06T07:02:31.668Z,5.32
2018-04-06T07:03:31.768Z,5.47
2018-04-06T07:04:31.802Z,5.53
2018-04-06T07:05:31.856Z,5.65
2018-04-06T07:06:31.901Z,5.66
2018-04-06T07:07:31.996Z,5.80
2018-04-06T07:08:32.045Z,5.80
2018-04-06T07:09:32.102Z,6.02
2018-04-06T07:10:32.136Z,5.90
2018-04-06T07:11:32.201Z,6.02
2018-04-06T07:12:32.301Z,6.12
2018-04-06T07:13:32.541Z,6.26
2018-04-06T07:14:32.465Z,6.26
2018-04-06T07:15:32.466Z,6.44
2018-04-06T07:16:32.505Z,6.44
2018-04-06T07:17:32.564Z,6.60
2018-04-06T07:18:32.629Z,6.64
2018-04-06T07:19:32.693Z,6.72
2018-04-06T07:20:32.745Z,6.85
2018-04-06T07:21:32.829Z,6.85
2018-04-06T07:22:32.865Z,7.06
2018-04-06T07:23:32.933Z,7.42
2018-04-06T07:24:33.021Z,8.23
2018-04-06T07:25:33.037Z,9.22
2018-04-06T07:26:33.093Z,10.17
2018-04-06T07:27:33.166Z,10.87
2018-04-06T07:28:33.270Z,11.45
2018-04-06T07:29:33.329Z,12.00
2018-04-06T07:30:33.341Z,12.36
2018-04-06T07:31:33.421Z,13.05
2018-04-06T07:32:33.457Z,12.80
2018-04-06T07:33:33.549Z,13.09
2018-04-06T07:34:33.613Z,13.47
2018-04-06T07:35:33.662Z,13.97
2018-04-06T07:36:33.725Z,13.92
2018-04-06T07:37:33.786Z,13.92
2018-04-06T07:38:33.882Z,13.85
2018-04-06T07:39:33.925Z,13.89
2018-04-06T07:40:33.984Z,14.05
2018-04-06T07:41:34.033Z,14.04
2018-04-06T07:42:34.122Z,14.17
2018-04-06T07:43:34.194Z,14.55
2018-04-06T07:44:34.240Z,14.78
2018-04-06T07:45:34.298Z,14.65
2018-04-06T07:46:34.366Z,14.70
2018-04-06T07:47:34.430Z,14.88
2018-04-06T07:48:34.549Z,15.21
2018-04-06T07:49:34.578Z,14.77
2018-04-06T07:50:34.646Z,14.96
2018-04-06T07:51:34.706Z,15.09
2018-04-06T07:52:34.762Z,15.10
2018-04-06T07:53:34.834Z,15.07
2018-04-06T07:54:34.959Z,15.59
2018-04-06T07:55:34.966Z,15.55
2018-04-06T07:56:35.066Z,15.88
2018-04-06T07:57:35.107Z,15.09
2018-04-06T07:58:35.286Z,15.40
2018-04-06T07:59:35.246Z,15.06
2018-04-06T08:00:35.314Z,15.15
2018-04-06T08:01:35.378Z,14.77
2018-04-06T08:02:35.454Z,15.39
2018-04-06T08:03:35.523Z,15.59
2018-04-06T08:04:35.583Z,15.31
2018-04-06T08:05:35.692Z,15.29
2018-04-06T08:06:35.723Z,15.42
2018-04-06T08:07:35.787Z,15.24
2018-04-06T08:08:35.863Z,14.96
2018-04-06T08:09:35.930Z,15.37
2018-04-06T08:10:35.994Z,15.42
2018-04-06T08:11:36.063Z,15.64
2018-04-06T08:12:36.131Z,15.86
2018-04-06T08:13:36.215Z,15.59
2018-04-06T08:14:36.267Z,15.68
2018-04-06T08:15:36.335Z,15.44
2018-04-06T08:16:36.412Z,15.17
2018-04-06T08:17:36.482Z,14.86
2018-04-06T08:18:36.563Z,14.91
2018-04-06T08:19:36.632Z,14.70
2018-04-06T08:20:36.683Z,15.27
2018-04-06T08:21:36.756Z,15.62
2018-04-06T08:22:36.821Z,15.51
2018-04-06T08:23:36.895Z,15.57
2018-04-06T08:24:36.964Z,15.57
2018-04-06T08:25:37.032Z,15.90
2018-04-06T08:26:37.107Z,15.55
2018-04-06T08:27:37.163Z,15.97
2018-04-06T08:28:37.272Z,16.32
2018-04-06T08:29:37.300Z,16.71
2018-04-06T08:30:37.371Z,17.01
2018-04-06T08:31:37.439Z,16.58
2018-04-06T08:32:37.512Z,16.56
2018-04-06T08:33:37.583Z,16.38
2018-04-06T08:34:37.652Z,16.58
2018-04-06T08:35:37.713Z,16.36
2018-04-06T08:36:37.800Z,15.76
2018-04-06T08:37:37.852Z,16.42
2018-04-06T08:38:37.928Z,16.72
2018-04-06T08:39:38.006Z,16.36
2018-04-06T08:40:38.060Z,16.50
2018-04-06T08:41:38.128Z,16.47
2018-04-06T08:42:38.196Z,16.69
2018-04-06T08:43:38.264Z,17.29
2018-04-06T08:44:38.356Z,17.14
2018-04-06T08:45:38.404Z,16.97
2018-04-06T08:46:38.476Z,16.94
2018-04-06T08:47:38.548Z,17.08
2018-04-06T08:48:38.609Z,17.08
2018-04-06T08:49:38.685Z,17.29
2018-04-06T08:50:38.760Z,16.91
2018-04-06T08:51:38.820Z,16.50
2018-04-06T08:52:38.885Z,16.97
2018-04-06T08:53:38.957Z,17.19
2018-04-06T08:54:39.062Z,17.09
2018-04-06T08:55:39.105Z,17.44
2018-04-06T08:56:39.165Z,17.70
2018-04-06T08:57:39.229Z,17.57
2018-04-06T08:58:39.309Z,17.83
2018-04-06T08:59:39.481Z,17.52
2018-04-06T09:00:39.437Z,17.38
2018-04-06T09:01:39.509Z,17.51
2018-04-06T09:02:39.577Z,17.23
2018-04-06T09:03:39.650Z,17.33
2018-04-06T09:04:39.732Z,17.11
2018-04-06T09:05:39.789Z,17.01
2018-04-06T09:06:39.853Z,16.79
2018-04-06T09:07:39.918Z,16.36
2018-04-06T09:08:39.989Z,16.54
2018-04-06T09:09:40.065Z,16.94
2018-04-06T09:10:40.133Z,17.22
2018-04-06T09:11:40.193Z,16.87
2018-04-06T09:12:40.326Z,16.76
2018-04-06T09:13:40.334Z,16.76
2018-04-06T09:14:40.405Z,16.94
2018-04-06T09:15:40.476Z,17.15
2018-04-06T09:16:40.542Z,17.27
2018-04-06T09:17:40.606Z,17.14
2018-04-06T09:18:40.674Z,17.23
2018-04-06T09:19:40.749Z,17.70
2018-04-06T09:20:40.818Z,17.41
2018-04-06T09:21:40.878Z,17.36
2018-04-06T09:22:40.953Z,17.19
2018-04-06T09:23:41.014Z,17.08
2018-04-06T09:24:41.094Z,17.05
2018-04-06T09:25:41.162Z,16.54
2018-04-06T09:26:41.223Z,16.71
2018-04-06T09:27:41.290Z,16.69
2018-04-06T09:28:41.362Z,17.05
2018-04-06T09:29:41.430Z,17.02
2018-04-06T09:30:41.507Z,16.57
2018-04-06T09:31:41.682Z,16.81
2018-04-06T09:32:41.630Z,16.91
2018-04-06T09:33:41.698Z,17.06
2018-04-06T09:34:41.771Z,16.57
2018-04-06T09:35:41.838Z,16.53
2018-04-06T09:36:41.900Z,16.36
2018-04-06T09:37:41.966Z,16.58
2018-04-06T09:38:42.038Z,16.66
2018-04-06T09:39:42.254Z,16.57
2018-04-06T09:40:42.172Z,16.71
2018-04-06T09:41:42.243Z,16.74
2018-04-06T09:42:42.307Z,16.49
2018-04-06T09:43:42.379Z,16.74
2018-04-06T09:44:42.447Z,16.75
2018-04-06T09:45:42.521Z,16.89
2018-04-06T09:46:42.575Z,17.05
2018-04-06T09:47:42.639Z,17.22
2018-04-06T09:48:42.707Z,17.56
2018-04-06T09:49:42.795Z,17.31
2018-04-06T09:50:42.859Z,17.20
2018-04-06T09:51:42.912Z,17.14
2018-04-06T09:52:42.979Z,17.15
2018-04-06T09:53:43.044Z,16.99
2018-04-06T09:54:43.459Z,16.84
2018-04-06T09:55:43.183Z,16.86
2018-04-06T09:56:43.248Z,17.02
2018-04-06T09:57:43.312Z,17.34
2018-04-06T09:58:43.383Z,17.79
2018-04-06T09:59:43.459Z,17.64
2018-04-06T10:00:43.520Z,17.67
2018-04-06T10:01:43.579Z,17.80
2018-04-06T10:02:43.648Z,17.98
2018-04-06T10:03:43.712Z,17.48
2018-04-06T10:04:43.787Z,17.31
2018-04-06T10:05:43.864Z,17.44
2018-04-06T10:06:43.920Z,17.42
2018-04-06T10:07:43.984Z,17.24
2018-04-06T10:08:44.048Z,17.33
2018-04-06T10:09:44.128Z,17.12
2018-04-06T10:10:44.180Z,17.33
2018-04-06T10:11:44.248Z,17.16
2018-04-06T10:12:44.320Z,17.05
2018-04-06T10:13:44.380Z,17.31
2018-04-06T10:14:44.456Z,17.80
2018-04-06T10:15:44.520Z,17.42
2018-04-06T10:16:44.589Z,17.41
2018-04-06T10:17:44.659Z,17.30
2018-04-06T10:18:44.721Z,17.16
2018-04-06T10:19:44.793Z,17.27
2018-04-06T10:20:44.861Z,17.14
2018-04-06T10:21:44.929Z,17.15
2018-04-06T10:22:44.981Z,16.89
2018-04-06T10:23:45.049Z,17.01
2018-04-06T10:24:45.289Z,17.22
2018-04-06T10:25:45.185Z,17.24
2018-04-06T10:26:45.249Z,17.09
2018-04-06T10:27:45.312Z,17.22
2018-04-06T10:28:45.385Z,16.99
2018-04-06T10:29:45.457Z,16.97
2018-04-06T10:30:45.525Z,17.16
2018-04-06T10:31:45.585Z,17.19
2018-04-06T10:32:45.645Z,16.86
2018-04-06T10:33:45.713Z,16.94
2018-04-06T10:34:45.789Z,16.50
2018-04-06T10:35:45.853Z,16.43
2018-04-06T10:36:45.918Z,16.71
2018-04-06T10:37:45.981Z,16.94
2018-04-06T10:38:46.045Z,16.96
2018-04-06T10:39:46.269Z,16.97
2018-04-06T10:40:46.186Z,17.14
2018-04-06T10:41:46.241Z,16.75
2018-04-06T10:42:46.310Z,16.79
2018-04-06T10:43:46.403Z,16.72
2018-04-06T10:44:46.450Z,16.42
2018-04-06T10:45:46.526Z,16.54
2018-04-06T10:46:46.602Z,16.50
2018-04-06T10:47:46.641Z,16.69
2018-04-06T10:48:46.705Z,16.46
2018-04-06T10:49:46.778Z,16.75
2018-04-06T10:50:46.844Z,16.84
2018-04-06T10:51:46.903Z,16.58
2018-04-06T10:52:46.970Z,16.39
2018-04-06T10:53:47.046Z,16.56
2018-04-06T10:54:47.118Z,16.64
2018-04-06T10:55:47.187Z,16.65
2018-04-06T10:56:47.240Z,16.60
2018-04-06T10:57:47.298Z,16.47
2018-04-06T10:58:47.362Z,16.61
2018-04-06T10:59:47.434Z,16.72
2018-04-06T11:00:47.503Z,16.54
2018-04-06T11:01:47.566Z,16.51
2018-04-06T11:02:47.630Z,16.23
2018-04-06T11:03:47.690Z,16.35
2018-04-06T11:04:47.766Z,16.24
2018-04-06T11:05:47.830Z,15.95
2018-04-06T11:06:47.890Z,16.00
2018-04-06T11:07:47.963Z,16.00
2018-04-06T11:08:48.026Z,16.02
2018-04-06T11:09:48.130Z,16.26
2018-04-06T11:10:48.154Z,16.28
2018-04-06T11:11:48.225Z,16.41
2018-04-06T11:12:48.299Z,16.42
2018-04-06T11:13:48.350Z,16.60
2018-04-06T11:14:48.426Z,16.84
2018-04-06T11:15:48.494Z,16.90
2018-04-06T11:16:48.547Z,17.04
2018-04-06T11:17:48.611Z,16.87
2018-04-06T11:18:48.679Z,16.75
2018-04-06T11:19:48.754Z,16.72
2018-04-06T11:20:48.847Z,16.79
2018-04-06T11:21:48.875Z,16.75
2018-04-06T11:22:48.943Z,16.86
2018-04-06T11:23:49.011Z,16.89
2018-04-06T11:24:49.115Z,16.84
2018-04-06T11:25:49.143Z,16.64
2018-04-06T11:26:49.211Z,16.50
2018-04-06T11:27:49.271Z,16.49
2018-04-06T11:28:49.352Z,16.42
2018-04-06T11:29:49.423Z,16.57
2018-04-06T11:30:49.488Z,16.91
2018-04-06T11:31:49.540Z,16.83
2018-04-06T11:32:49.603Z,17.01
2018-04-06T11:33:49.668Z,17.01
2018-04-06T11:34:49.751Z,17.02
2018-04-06T11:35:49.807Z,17.11
2018-04-06T11:36:49.879Z,17.06
2018-04-06T11:37:49.945Z,17.27
2018-04-06T11:38:50.000Z,17.39
2018-04-06T11:39:50.075Z,17.44
2018-04-06T11:40:50.135Z,17.26
2018-04-06T11:41:50.196Z,17.38
2018-04-06T11:42:50.268Z,17.20
2018-04-06T11:43:50.327Z,17.15
2018-04-06T11:44:50.412Z,17.09
2018-04-06T11:45:50.499Z,17.05
2018-04-06T11:46:50.536Z,17.09
2018-04-06T11:47:50.588Z,16.97
2018-04-06T11:48:50.661Z,16.86
2018-04-06T11:49:50.744Z,16.83
2018-04-06T11:50:50.812Z,16.90
2018-04-06T11:51:50.860Z,16.91
2018-04-06T11:52:50.924Z,17.05
2018-04-06T11:53:50.992Z,16.84
2018-04-06T11:54:51.059Z,16.83
2018-04-06T11:55:51.148Z,16.90
2018-04-06T11:56:51.196Z,16.83
2018-04-06T11:57:51.256Z,16.91
2018-04-06T11:58:51.324Z,16.72
2018-04-06T11:59:51.394Z,16.91
2018-04-06T12:00:51.466Z,17.11
2018-04-06T12:01:51.532Z,17.29
2018-04-06T12:02:51.588Z,17.24
2018-04-06T12:03:51.665Z,17.19
2018-04-06T12:04:51.721Z,17.36
2018-04-06T12:05:51.797Z,17.41
2018-04-06T12:06:51.861Z,17.30
2018-04-06T12:07:51.967Z,17.31
2018-04-06T12:08:51.987Z,17.31
2018-04-06T12:09:52.054Z,17.27
2018-04-06T12:10:52.142Z,17.22
2018-04-06T12:11:52.189Z,17.33
2018-04-06T12:12:52.249Z,17.09
2018-04-06T12:13:52.317Z,17.23
2018-04-06T12:14:52.413Z,17.26
2018-04-06T12:15:52.456Z,17.29
2018-04-06T12:16:52.521Z,17.31
2018-04-06T12:17:52.582Z,17.48
2018-04-06T12:18:52.649Z,17.46
2018-04-06T12:19:52.717Z,17.38
2018-04-06T12:20:52.785Z,17.41
2018-04-06T12:21:52.868Z,17.29
2018-04-06T12:22:52.913Z,17.38
2018-04-06T12:23:52.988Z,17.54
2018-04-06T12:24:53.046Z,17.65
2018-04-06T12:25:53.278Z,17.70
2018-04-06T12:26:53.181Z,17.68
2018-04-06T12:27:53.284Z,17.56
2018-04-06T12:28:53.309Z,17.42
2018-04-06T12:29:53.378Z,17.45
2018-04-06T12:30:53.450Z,17.52
2018-04-06T12:31:53.518Z,17.46
2018-04-06T12:32:53.574Z,17.45
2018-04-06T12:33:53.642Z,17.76
2018-04-06T12:34:53.710Z,17.68
2018-04-06T12:35:53.784Z,17.49
2018-04-06T12:36:53.854Z,17.54
2018-04-06T12:37:53.911Z,17.49
2018-04-06T12:38:53.974Z,17.45
2018-04-06T12:39:54.051Z,17.56
2018-04-06T12:40:54.109Z,17.57
2018-04-06T12:41:54.194Z,17.64
2018-04-06T12:42:54.238Z,17.30
2018-04-06T12:43:54.306Z,17.31
2018-04-06T12:44:54.371Z,17.33
2018-04-06T12:45:54.446Z,17.51
2018-04-06T12:46:54.544Z,17.51
2018-04-06T12:47:54.575Z,17.65
2018-04-06T12:48:54.692Z,17.74
2018-04-06T12:49:54.702Z,17.94
2018-04-06T12:50:54.771Z,17.97
2018-04-06T12:51:54.844Z,17.95
2018-04-06T12:52:54.915Z,17.97
2018-04-06T12:53:54.966Z,18.00
2018-04-06T12:54:55.039Z,17.90
2018-04-06T12:55:55.152Z,17.95
2018-04-06T12:56:55.474Z,17.98
2018-04-06T12:57:55.231Z,18.07
2018-04-06T12:58:55.327Z,18.22
2018-04-06T12:59:55.367Z,18.10
2018-04-06T13:00:55.436Z,18.04
2018-04-06T13:01:55.523Z,18.03
2018-04-06T13:02:55.631Z,18.35
2018-04-06T13:03:55.635Z,18.53
2018-04-06T13:04:55.695Z,18.53
2018-04-06T13:05:55.799Z,18.44
2018-04-06T13:06:55.847Z,18.52
2018-04-06T13:07:55.911Z,18.31